sensor_id;sensor_type;location;lat;lon;timestamp;P1;durP1;ratioP1;P2;durP2;ratioP2
3571;SDS011;7958;53.024;12.970;2024-03-22T00:00:09;12.73;;;9.27;;
3571;SDS011;7958;53.024;12.970;2024-03-22T00:02:38;12.57;;;8.70;;
3571;SDS011;7958;53.024;12.970;2024-03-22T00:05:04;10.60;;;7.73;;
3571;SDS011;7958;53.024;12.970;2024-03-22T00:07:30;17.43;;;10.00;;
3571;SDS011;7958;53.024;12.970;2024-03-22T00:09:56;13.37;;;8.60;;
3571;SDS011;7958;53.024;12.970;2024-03-22T00:12:22;13.20;;;8.67;;
3571;SDS011;7958;53.024;12.970;2024-03-22T00:14:48;13.87;;;9.40;;
3571;SDS011;7958;53.024;12.970;2024-03-22T00:17:16;11.50;;;8.13;;
3571;SDS011;7958;53.024;12.970;2024-03-22T00:19:42;13.07;;;9.40;;
3571;SDS011;7958;53.024;12.970;2024-03-22T00:22:09;11.53;;;8.50;;
3571;SDS011;7958;53.024;12.970;2024-03-22T00:24:34;12.60;;;8.83;;
3571;SDS011;7958;53.024;12.970;2024-03-22T00:27:01;12.40;;;8.83;;
3571;SDS011;7958;53.024;12.970;2024-03-22T00:29:26;15.10;;;9.27;;
3571;SDS011;7958;53.024;12.970;2024-03-22T00:31:54;15.10;;;10.07;;
3571;SDS011;7958;53.024;12.970;2024-03-22T00:34:19;15.20;;;9.90;;
3571;SDS011;7958;53.024;12.970;2024-03-22T00:36:48;13.93;;;8.73;;
3571;SDS011;7958;53.024;12.970;2024-03-22T00:39:14;14.80;;;9.67;;
3571;SDS011;7958;53.024;12.970;2024-03-22T00:41:40;18.70;;;11.00;;
3571;SDS011;7958;53.024;12.970;2024-03-22T00:44:05;15.70;;;10.17;;
3571;SDS011;7958;53.024;12.970;2024-03-22T00:46:32;14.27;;;9.67;;
3571;SDS011;7958;53.024;12.970;2024-03-22T00:48:57;16.07;;;10.30;;
3571;SDS011;7958;53.024;12.970;2024-03-22T00:51:24;15.57;;;9.53;;
3571;SDS011;7958;53.024;12.970;2024-03-22T00:53:56;14.57;;;9.77;;
3571;SDS011;7958;53.024;12.970;2024-03-22T00:56:23;14.70;;;10.60;;
3571;SDS011;7958;53.024;12.970;2024-03-22T00:58:48;16.97;;;11.17;;
3571;SDS011;7958;53.024;12.970;2024-03-22T01:01:14;14.43;;;10.10;;
3571;SDS011;7958;53.024;12.970;2024-03-22T01:03:40;15.03;;;10.40;;
3571;SDS011;7958;53.024;12.970;2024-03-22T01:06:06;14.37;;;10.07;;
3571;SDS011;7958;53.024;12.970;2024-03-22T01:08:32;15.83;;;10.83;;
3571;SDS011;7958;53.024;12.970;2024-03-22T01:11:00;19.37;;;12.33;;
3571;SDS011;7958;53.024;12.970;2024-03-22T01:13:26;16.33;;;10.60;;
3571;SDS011;7958;53.024;12.970;2024-03-22T01:15:52;19.90;;;11.23;;
3571;SDS011;7958;53.024;12.970;2024-03-22T01:18:18;18.07;;;11.13;;
3571;SDS011;7958;53.024;12.970;2024-03-22T01:20:44;15.40;;;10.73;;
3571;SDS011;7958;53.024;12.970;2024-03-22T01:23:10;14.67;;;10.50;;
3571;SDS011;7958;53.024;12.970;2024-03-22T01:25:36;16.07;;;9.83;;
3571;SDS011;7958;53.024;12.970;2024-03-22T01:28:04;15.03;;;10.10;;
3571;SDS011;7958;53.024;12.970;2024-03-22T01:30:30;20.13;;;12.40;;
3571;SDS011;7958;53.024;12.970;2024-03-22T01:32:56;16.60;;;10.40;;
3571;SDS011;7958;53.024;12.970;2024-03-22T01:35:22;18.30;;;11.03;;
3571;SDS011;7958;53.024;12.970;2024-03-22T01:37:48;16.20;;;10.50;;
3571;SDS011;7958;53.024;12.970;2024-03-22T01:40:15;17.40;;;10.93;;
3571;SDS011;7958;53.024;12.970;2024-03-22T01:42:42;18.53;;;10.27;;
3571;SDS011;7958;53.024;12.970;2024-03-22T01:45:10;19.43;;;10.30;;
3571;SDS011;7958;53.024;12.970;2024-03-22T01:47:37;18.90;;;10.90;;
3571;SDS011;7958;53.024;12.970;2024-03-22T01:50:05;19.37;;;11.00;;
3571;SDS011;7958;53.024;12.970;2024-03-22T01:52:32;18.93;;;11.23;;
3571;SDS011;7958;53.024;12.970;2024-03-22T01:54:59;18.23;;;10.97;;
3571;SDS011;7958;53.024;12.970;2024-03-22T01:57:24;18.57;;;11.37;;
3571;SDS011;7958;53.024;12.970;2024-03-22T01:59:51;18.40;;;10.97;;
3571;SDS011;7958;53.024;12.970;2024-03-22T02:02:20;15.93;;;10.37;;
3571;SDS011;7958;53.024;12.970;2024-03-22T02:04:49;18.47;;;11.60;;
3571;SDS011;7958;53.024;12.970;2024-03-22T02:07:15;17.30;;;10.70;;
3571;SDS011;7958;53.024;12.970;2024-03-22T02:09:42;22.30;;;11.23;;
3571;SDS011;7958;53.024;12.970;2024-03-22T02:12:08;16.03;;;10.27;;
3571;SDS011;7958;53.024;12.970;2024-03-22T02:14:35;20.03;;;11.27;;
3571;SDS011;7958;53.024;12.970;2024-03-22T02:17:01;18.50;;;10.73;;
3571;SDS011;7958;53.024;12.970;2024-03-22T02:19:28;18.07;;;10.37;;
3571;SDS011;7958;53.024;12.970;2024-03-22T02:21:54;17.40;;;10.40;;
3571;SDS011;7958;53.024;12.970;2024-03-22T02:24:23;18.47;;;10.03;;
3571;SDS011;7958;53.024;12.970;2024-03-22T02:26:50;19.90;;;9.67;;
3571;SDS011;7958;53.024;12.970;2024-03-22T02:29:15;16.10;;;10.90;;
3571;SDS011;7958;53.024;12.970;2024-03-22T02:31:41;18.73;;;10.03;;
3571;SDS011;7958;53.024;12.970;2024-03-22T02:34:07;14.63;;;9.67;;
3571;SDS011;7958;53.024;12.970;2024-03-22T02:36:33;12.87;;;8.23;;
3571;SDS011;7958;53.024;12.970;2024-03-22T02:38:58;18.00;;;10.07;;
3571;SDS011;7958;53.024;12.970;2024-03-22T02:41:26;15.73;;;10.53;;
3571;SDS011;7958;53.024;12.970;2024-03-22T02:43:51;15.53;;;10.60;;
3571;SDS011;7958;53.024;12.970;2024-03-22T02:46:18;17.87;;;10.23;;
3571;SDS011;7958;53.024;12.970;2024-03-22T02:48:43;17.90;;;10.43;;
3571;SDS011;7958;53.024;12.970;2024-03-22T02:51:10;14.40;;;9.37;;
3571;SDS011;7958;53.024;12.970;2024-03-22T02:53:35;18.83;;;9.47;;
3571;SDS011;7958;53.024;12.970;2024-03-22T02:56:02;16.67;;;10.00;;
3571;SDS011;7958;53.024;12.970;2024-03-22T02:58:29;14.27;;;9.40;;
3571;SDS011;7958;53.024;12.970;2024-03-22T03:00:55;18.03;;;10.33;;
3571;SDS011;7958;53.024;12.970;2024-03-22T03:03:21;16.63;;;10.00;;
3571;SDS011;7958;53.024;12.970;2024-03-22T03:05:47;19.40;;;9.87;;
3571;SDS011;7958;53.024;12.970;2024-03-22T03:08:12;20.50;;;10.50;;
3571;SDS011;7958;53.024;12.970;2024-03-22T03:10:39;17.60;;;10.10;;
3571;SDS011;7958;53.024;12.970;2024-03-22T03:13:04;20.40;;;10.50;;
3571;SDS011;7958;53.024;12.970;2024-03-22T03:15:32;15.47;;;10.00;;
3571;SDS011;7958;53.024;12.970;2024-03-22T03:17:57;16.33;;;10.13;;
3571;SDS011;7958;53.024;12.970;2024-03-22T03:20:24;15.07;;;10.50;;
3571;SDS011;7958;53.024;12.970;2024-03-22T03:22:50;18.80;;;10.13;;
3571;SDS011;7958;53.024;12.970;2024-03-22T03:25:17;18.13;;;10.30;;
3571;SDS011;7958;53.024;12.970;2024-03-22T03:27:42;14.27;;;8.83;;
3571;SDS011;7958;53.024;12.970;2024-03-22T03:30:09;13.33;;;8.67;;
3571;SDS011;7958;53.024;12.970;2024-03-22T03:32:37;18.60;;;10.40;;
3571;SDS011;7958;53.024;12.970;2024-03-22T03:35:04;15.93;;;9.47;;
3571;SDS011;7958;53.024;12.970;2024-03-22T03:37:30;16.33;;;10.30;;
3571;SDS011;7958;53.024;12.970;2024-03-22T03:39:56;19.40;;;10.43;;
3571;SDS011;7958;53.024;12.970;2024-03-22T03:42:22;16.43;;;10.20;;
3571;SDS011;7958;53.024;12.970;2024-03-22T03:44:48;17.70;;;9.47;;
3571;SDS011;7958;53.024;12.970;2024-03-22T03:47:13;14.53;;;9.60;;
3571;SDS011;7958;53.024;12.970;2024-03-22T03:49:42;16.23;;;9.07;;
3571;SDS011;7958;53.024;12.970;2024-03-22T03:52:07;19.83;;;10.47;;
3571;SDS011;7958;53.024;12.970;2024-03-22T03:54:34;17.63;;;10.57;;
3571;SDS011;7958;53.024;12.970;2024-03-22T03:56:59;17.47;;;10.63;;
3571;SDS011;7958;53.024;12.970;2024-03-22T03:59:25;18.20;;;10.27;;
3571;SDS011;7958;53.024;12.970;2024-03-22T04:01:51;16.03;;;9.53;;
3571;SDS011;7958;53.024;12.970;2024-03-22T04:04:17;16.90;;;10.43;;
3571;SDS011;7958;53.024;12.970;2024-03-22T04:06:44;22.93;;;11.40;;
3571;SDS011;7958;53.024;12.970;2024-03-22T04:09:11;18.93;;;10.30;;
3571;SDS011;7958;53.024;12.970;2024-03-22T04:11:37;16.73;;;9.40;;
3571;SDS011;7958;53.024;12.970;2024-03-22T04:14:03;15.93;;;10.10;;
3571;SDS011;7958;53.024;12.970;2024-03-22T04:16:28;17.53;;;10.47;;
3571;SDS011;7958;53.024;12.970;2024-03-22T04:18:55;19.00;;;10.80;;
3571;SDS011;7958;53.024;12.970;2024-03-22T04:21:20;16.20;;;9.93;;
3571;SDS011;7958;53.024;12.970;2024-03-22T04:23:48;16.50;;;10.10;;
3571;SDS011;7958;53.024;12.970;2024-03-22T04:26:14;16.07;;;9.77;;
3571;SDS011;7958;53.024;12.970;2024-03-22T04:28:42;18.43;;;9.67;;
3571;SDS011;7958;53.024;12.970;2024-03-22T04:31:08;15.63;;;9.87;;
3571;SDS011;7958;53.024;12.970;2024-03-22T04:33:35;17.20;;;10.40;;
3571;SDS011;7958;53.024;12.970;2024-03-22T04:36:01;19.60;;;10.67;;
3571;SDS011;7958;53.024;12.970;2024-03-22T04:38:28;16.37;;;10.13;;
3571;SDS011;7958;53.024;12.970;2024-03-22T04:40:56;19.33;;;10.73;;
3571;SDS011;7958;53.024;12.970;2024-03-22T04:43:23;17.43;;;10.53;;
3571;SDS011;7958;53.024;12.970;2024-03-22T04:45:50;21.60;;;11.87;;
3571;SDS011;7958;53.024;12.970;2024-03-22T04:48:22;17.40;;;10.43;;
3571;SDS011;7958;53.024;12.970;2024-03-22T04:50:50;14.80;;;9.70;;
3571;SDS011;7958;53.024;12.970;2024-03-22T04:53:17;17.83;;;10.90;;
3571;SDS011;7958;53.024;12.970;2024-03-22T04:55:43;17.70;;;10.43;;
3571;SDS011;7958;53.024;12.970;2024-03-22T04:58:12;21.13;;;10.80;;
3571;SDS011;7958;53.024;12.970;2024-03-22T05:00:38;20.67;;;10.93;;
3571;SDS011;7958;53.024;12.970;2024-03-22T05:03:04;18.00;;;9.63;;
3571;SDS011;7958;53.024;12.970;2024-03-22T05:05:30;15.63;;;9.53;;
3571;SDS011;7958;53.024;12.970;2024-03-22T05:07:56;17.23;;;10.53;;
3571;SDS011;7958;53.024;12.970;2024-03-22T05:10:22;21.37;;;10.60;;
3571;SDS011;7958;53.024;12.970;2024-03-22T05:12:48;18.63;;;11.10;;
3571;SDS011;7958;53.024;12.970;2024-03-22T05:15:15;15.80;;;10.53;;
3571;SDS011;7958;53.024;12.970;2024-03-22T05:17:41;21.03;;;10.97;;
3571;SDS011;7958;53.024;12.970;2024-03-22T05:20:08;19.57;;;11.47;;
3571;SDS011;7958;53.024;12.970;2024-03-22T05:22:36;22.50;;;12.10;;
3571;SDS011;7958;53.024;12.970;2024-03-22T05:25:01;20.90;;;11.87;;
3571;SDS011;7958;53.024;12.970;2024-03-22T05:27:28;19.70;;;11.37;;
3571;SDS011;7958;53.024;12.970;2024-03-22T05:29:55;20.40;;;12.30;;
3571;SDS011;7958;53.024;12.970;2024-03-22T05:32:23;21.70;;;11.80;;
3571;SDS011;7958;53.024;12.970;2024-03-22T05:34:48;20.90;;;11.80;;
3571;SDS011;7958;53.024;12.970;2024-03-22T05:37:15;21.93;;;11.57;;
3571;SDS011;7958;53.024;12.970;2024-03-22T05:39:40;19.20;;;12.37;;
3571;SDS011;7958;53.024;12.970;2024-03-22T05:42:07;22.50;;;11.90;;
3571;SDS011;7958;53.024;12.970;2024-03-22T05:44:32;19.63;;;11.90;;
3571;SDS011;7958;53.024;12.970;2024-03-22T05:46:59;22.80;;;11.30;;
3571;SDS011;7958;53.024;12.970;2024-03-22T05:49:25;19.57;;;11.67;;
3571;SDS011;7958;53.024;12.970;2024-03-22T05:51:52;21.20;;;12.47;;
3571;SDS011;7958;53.024;12.970;2024-03-22T05:54:18;22.17;;;12.40;;
3571;SDS011;7958;53.024;12.970;2024-03-22T05:56:45;18.90;;;11.83;;
3571;SDS011;7958;53.024;12.970;2024-03-22T05:59:10;22.70;;;12.50;;
3571;SDS011;7958;53.024;12.970;2024-03-22T06:01:37;20.47;;;12.67;;
3571;SDS011;7958;53.024;12.970;2024-03-22T06:04:03;23.00;;;12.90;;
3571;SDS011;7958;53.024;12.970;2024-03-22T06:06:32;23.27;;;14.20;;
3571;SDS011;7958;53.024;12.970;2024-03-22T06:08:57;24.07;;;13.20;;
3571;SDS011;7958;53.024;12.970;2024-03-22T06:11:25;22.03;;;11.90;;
3571;SDS011;7958;53.024;12.970;2024-03-22T06:13:50;23.53;;;12.33;;
3571;SDS011;7958;53.024;12.970;2024-03-22T06:16:17;18.60;;;12.40;;
3571;SDS011;7958;53.024;12.970;2024-03-22T06:18:42;22.80;;;13.83;;
3571;SDS011;7958;53.024;12.970;2024-03-22T06:21:09;21.10;;;14.17;;
3571;SDS011;7958;53.024;12.970;2024-03-22T06:23:36;23.67;;;13.33;;
3571;SDS011;7958;53.024;12.970;2024-03-22T06:26:02;22.30;;;13.30;;
3571;SDS011;7958;53.024;12.970;2024-03-22T06:28:28;23.00;;;13.13;;
3571;SDS011;7958;53.024;12.970;2024-03-22T06:30:54;23.70;;;13.47;;
3571;SDS011;7958;53.024;12.970;2024-03-22T06:33:20;19.43;;;13.07;;
3571;SDS011;7958;53.024;12.970;2024-03-22T06:35:46;23.80;;;13.63;;
3571;SDS011;7958;53.024;12.970;2024-03-22T06:38:12;23.10;;;13.17;;
3571;SDS011;7958;53.024;12.970;2024-03-22T06:40:41;25.00;;;14.27;;
3571;SDS011;7958;53.024;12.970;2024-03-22T06:43:06;22.73;;;13.57;;
3571;SDS011;7958;53.024;12.970;2024-03-22T06:45:33;21.43;;;13.53;;
3571;SDS011;7958;53.024;12.970;2024-03-22T06:47:58;27.97;;;13.90;;
3571;SDS011;7958;53.024;12.970;2024-03-22T06:50:24;24.37;;;13.77;;
3571;SDS011;7958;53.024;12.970;2024-03-22T06:52:50;21.13;;;13.37;;
3571;SDS011;7958;53.024;12.970;2024-03-22T06:55:18;27.93;;;14.07;;
3571;SDS011;7958;53.024;12.970;2024-03-22T06:57:45;25.70;;;14.77;;
3571;SDS011;7958;53.024;12.970;2024-03-22T07:00:13;26.63;;;15.43;;
3571;SDS011;7958;53.024;12.970;2024-03-22T07:02:38;27.07;;;15.63;;
3571;SDS011;7958;53.024;12.970;2024-03-22T07:05:05;26.67;;;14.20;;
3571;SDS011;7958;53.024;12.970;2024-03-22T07:07:31;24.93;;;15.10;;
3571;SDS011;7958;53.024;12.970;2024-03-22T07:09:58;27.50;;;15.60;;
3571;SDS011;7958;53.024;12.970;2024-03-22T07:12:23;27.90;;;15.70;;
3571;SDS011;7958;53.024;12.970;2024-03-22T07:14:51;28.83;;;16.23;;
3571;SDS011;7958;53.024;12.970;2024-03-22T07:17:17;25.97;;;15.90;;
3571;SDS011;7958;53.024;12.970;2024-03-22T07:19:45;28.87;;;16.27;;
3571;SDS011;7958;53.024;12.970;2024-03-22T07:22:14;27.43;;;15.50;;
3571;SDS011;7958;53.024;12.970;2024-03-22T07:24:40;23.13;;;13.70;;
3571;SDS011;7958;53.024;12.970;2024-03-22T07:27:06;26.57;;;15.37;;
3571;SDS011;7958;53.024;12.970;2024-03-22T07:29:32;26.80;;;14.87;;
3571;SDS011;7958;53.024;12.970;2024-03-22T07:31:59;29.23;;;16.30;;
3571;SDS011;7958;53.024;12.970;2024-03-22T07:34:26;27.00;;;16.13;;
3571;SDS011;7958;53.024;12.970;2024-03-22T07:36:51;28.97;;;15.13;;
3571;SDS011;7958;53.024;12.970;2024-03-22T07:39:18;24.93;;;15.23;;
3571;SDS011;7958;53.024;12.970;2024-03-22T07:41:44;26.50;;;15.70;;
3571;SDS011;7958;53.024;12.970;2024-03-22T07:44:10;25.07;;;15.53;;
3571;SDS011;7958;53.024;12.970;2024-03-22T07:46:36;25.87;;;15.93;;
3571;SDS011;7958;53.024;12.970;2024-03-22T07:49:04;26.37;;;15.67;;
3571;SDS011;7958;53.024;12.970;2024-03-22T07:51:29;26.77;;;15.77;;
3571;SDS011;7958;53.024;12.970;2024-03-22T07:53:55;31.50;;;16.20;;
3571;SDS011;7958;53.024;12.970;2024-03-22T07:56:21;30.43;;;17.50;;
3571;SDS011;7958;53.024;12.970;2024-03-22T07:58:47;27.60;;;17.00;;
3571;SDS011;7958;53.024;12.970;2024-03-22T08:01:12;29.20;;;15.70;;
3571;SDS011;7958;53.024;12.970;2024-03-22T08:03:39;27.60;;;16.40;;
3571;SDS011;7958;53.024;12.970;2024-03-22T08:06:06;27.00;;;15.40;;
3571;SDS011;7958;53.024;12.970;2024-03-22T08:08:32;29.40;;;15.70;;
3571;SDS011;7958;53.024;12.970;2024-03-22T08:10:58;25.13;;;16.27;;
3571;SDS011;7958;53.024;12.970;2024-03-22T08:13:24;24.70;;;16.20;;
3571;SDS011;7958;53.024;12.970;2024-03-22T08:15:52;29.43;;;15.83;;
3571;SDS011;7958;53.024;12.970;2024-03-22T08:18:18;29.40;;;17.47;;
3571;SDS011;7958;53.024;12.970;2024-03-22T08:20:44;26.90;;;17.33;;
3571;SDS011;7958;53.024;12.970;2024-03-22T08:23:12;26.20;;;16.00;;
3571;SDS011;7958;53.024;12.970;2024-03-22T08:25:37;27.60;;;16.77;;
3571;SDS011;7958;53.024;12.970;2024-03-22T08:28:04;27.50;;;15.93;;
3571;SDS011;7958;53.024;12.970;2024-03-22T08:30:29;28.43;;;17.73;;
3571;SDS011;7958;53.024;12.970;2024-03-22T08:32:56;25.47;;;15.40;;
3571;SDS011;7958;53.024;12.970;2024-03-22T08:35:21;29.80;;;16.10;;
3571;SDS011;7958;53.024;12.970;2024-03-22T08:37:48;27.63;;;17.07;;
3571;SDS011;7958;53.024;12.970;2024-03-22T08:40:15;31.20;;;17.63;;
3571;SDS011;7958;53.024;12.970;2024-03-22T08:42:41;31.07;;;17.60;;
3571;SDS011;7958;53.024;12.970;2024-03-22T08:45:07;27.07;;;16.67;;
3571;SDS011;7958;53.024;12.970;2024-03-22T08:47:34;25.50;;;16.70;;
3571;SDS011;7958;53.024;12.970;2024-03-22T08:50:00;27.47;;;17.87;;
3571;SDS011;7958;53.024;12.970;2024-03-22T08:52:26;27.47;;;17.63;;
3571;SDS011;7958;53.024;12.970;2024-03-22T08:54:52;27.47;;;17.00;;
3571;SDS011;7958;53.024;12.970;2024-03-22T08:57:20;27.83;;;17.60;;
3571;SDS011;7958;53.024;12.970;2024-03-22T08:59:47;29.77;;;16.60;;
3571;SDS011;7958;53.024;12.970;2024-03-22T09:02:13;29.50;;;17.73;;
3571;SDS011;7958;53.024;12.970;2024-03-22T09:04:39;28.50;;;17.73;;
3571;SDS011;7958;53.024;12.970;2024-03-22T09:07:06;27.57;;;18.47;;
3571;SDS011;7958;53.024;12.970;2024-03-22T09:09:32;29.23;;;17.77;;
3571;SDS011;7958;53.024;12.970;2024-03-22T09:11:58;26.70;;;17.93;;
3571;SDS011;7958;53.024;12.970;2024-03-22T09:14:26;29.80;;;18.50;;
3571;SDS011;7958;53.024;12.970;2024-03-22T09:16:53;28.60;;;18.50;;
3571;SDS011;7958;53.024;12.970;2024-03-22T09:19:18;31.70;;;19.00;;
3571;SDS011;7958;53.024;12.970;2024-03-22T09:21:46;31.00;;;18.47;;
3571;SDS011;7958;53.024;12.970;2024-03-22T09:24:12;30.50;;;17.53;;
3571;SDS011;7958;53.024;12.970;2024-03-22T09:26:38;27.63;;;18.10;;
3571;SDS011;7958;53.024;12.970;2024-03-22T09:29:04;31.03;;;18.87;;
3571;SDS011;7958;53.024;12.970;2024-03-22T09:31:31;26.10;;;17.37;;
3571;SDS011;7958;53.024;12.970;2024-03-22T09:33:58;30.13;;;19.80;;
3571;SDS011;7958;53.024;12.970;2024-03-22T09:36:25;29.33;;;18.07;;
3571;SDS011;7958;53.024;12.970;2024-03-22T09:38:51;27.30;;;18.07;;
3571;SDS011;7958;53.024;12.970;2024-03-22T09:41:17;30.47;;;18.97;;
3571;SDS011;7958;53.024;12.970;2024-03-22T09:43:49;30.23;;;18.90;;
3571;SDS011;7958;53.024;12.970;2024-03-22T09:46:16;29.30;;;19.00;;
3571;SDS011;7958;53.024;12.970;2024-03-22T09:48:46;25.97;;;16.87;;
3571;SDS011;7958;53.024;12.970;2024-03-22T09:51:12;34.87;;;17.57;;
3571;SDS011;7958;53.024;12.970;2024-03-22T09:53:40;28.83;;;18.40;;
3571;SDS011;7958;53.024;12.970;2024-03-22T09:56:08;27.63;;;19.40;;
3571;SDS011;7958;53.024;12.970;2024-03-22T09:58:36;28.63;;;18.00;;
3571;SDS011;7958;53.024;12.970;2024-03-22T10:01:02;28.40;;;17.77;;
3571;SDS011;7958;53.024;12.970;2024-03-22T10:03:29;29.90;;;18.00;;
3571;SDS011;7958;53.024;12.970;2024-03-22T10:05:57;28.60;;;18.00;;
3571;SDS011;7958;53.024;12.970;2024-03-22T10:08:23;30.60;;;18.20;;
3571;SDS011;7958;53.024;12.970;2024-03-22T10:10:48;27.23;;;18.00;;
3571;SDS011;7958;53.024;12.970;2024-03-22T10:13:15;27.17;;;18.50;;
3571;SDS011;7958;53.024;12.970;2024-03-22T10:15:40;28.47;;;18.30;;
3571;SDS011;7958;53.024;12.970;2024-03-22T10:18:06;33.17;;;19.33;;
3571;SDS011;7958;53.024;12.970;2024-03-22T10:20:33;31.40;;;19.00;;
3571;SDS011;7958;53.024;12.970;2024-03-22T10:23:01;30.27;;;18.73;;
3571;SDS011;7958;53.024;12.970;2024-03-22T10:25:27;31.30;;;18.70;;
3571;SDS011;7958;53.024;12.970;2024-03-22T10:27:54;33.57;;;19.33;;
3571;SDS011;7958;53.024;12.970;2024-03-22T10:30:21;29.50;;;19.20;;
3571;SDS011;7958;53.024;12.970;2024-03-22T10:32:48;29.20;;;17.70;;
3571;SDS011;7958;53.024;12.970;2024-03-22T10:35:14;32.20;;;19.80;;
3571;SDS011;7958;53.024;12.970;2024-03-22T10:37:41;31.27;;;17.97;;
3571;SDS011;7958;53.024;12.970;2024-03-22T10:40:09;27.53;;;17.80;;
3571;SDS011;7958;53.024;12.970;2024-03-22T10:42:37;30.70;;;19.73;;
3571;SDS011;7958;53.024;12.970;2024-03-22T10:45:03;31.03;;;19.50;;
3571;SDS011;7958;53.024;12.970;2024-03-22T10:47:31;30.63;;;19.20;;
3571;SDS011;7958;53.024;12.970;2024-03-22T10:50:03;30.60;;;18.57;;
3571;SDS011;7958;53.024;12.970;2024-03-22T10:52:30;30.73;;;19.23;;
3571;SDS011;7958;53.024;12.970;2024-03-22T10:54:59;34.80;;;20.60;;
3571;SDS011;7958;53.024;12.970;2024-03-22T10:57:26;40.60;;;19.87;;
3571;SDS011;7958;53.024;12.970;2024-03-22T10:59:53;33.70;;;21.03;;
3571;SDS011;7958;53.024;12.970;2024-03-22T11:02:23;32.43;;;19.77;;
3571;SDS011;7958;53.024;12.970;2024-03-22T11:04:53;35.63;;;21.70;;
3571;SDS011;7958;53.024;12.970;2024-03-22T11:07:22;38.83;;;20.80;;
3571;SDS011;7958;53.024;12.970;2024-03-22T11:09:55;35.63;;;19.60;;
3571;SDS011;7958;53.024;12.970;2024-03-22T11:12:23;34.13;;;21.07;;
3571;SDS011;7958;53.024;12.970;2024-03-22T11:14:52;38.13;;;20.47;;
3571;SDS011;7958;53.024;12.970;2024-03-22T11:17:19;39.33;;;20.40;;
3571;SDS011;7958;53.024;12.970;2024-03-22T11:19:46;37.30;;;21.90;;
3571;SDS011;7958;53.024;12.970;2024-03-22T11:22:13;41.20;;;23.07;;
3571;SDS011;7958;53.024;12.970;2024-03-22T11:24:39;38.90;;;22.23;;
3571;SDS011;7958;53.024;12.970;2024-03-22T11:27:06;36.63;;;21.50;;
3571;SDS011;7958;53.024;12.970;2024-03-22T11:29:33;44.37;;;22.77;;
3571;SDS011;7958;53.024;12.970;2024-03-22T11:32:00;35.23;;;20.73;;
3571;SDS011;7958;53.024;12.970;2024-03-22T11:34:25;37.50;;;20.87;;
3571;SDS011;7958;53.024;12.970;2024-03-22T11:36:53;43.40;;;22.87;;
3571;SDS011;7958;53.024;12.970;2024-03-22T11:39:18;38.70;;;22.73;;
3571;SDS011;7958;53.024;12.970;2024-03-22T11:41:45;35.17;;;20.97;;
3571;SDS011;7958;53.024;12.970;2024-03-22T11:44:14;38.10;;;22.20;;
3571;SDS011;7958;53.024;12.970;2024-03-22T11:46:44;41.20;;;22.37;;
3571;SDS011;7958;53.024;12.970;2024-03-22T11:49:10;37.80;;;21.57;;
3571;SDS011;7958;53.024;12.970;2024-03-22T11:51:36;35.60;;;22.07;;
3571;SDS011;7958;53.024;12.970;2024-03-22T11:54:02;38.37;;;21.27;;
3571;SDS011;7958;53.024;12.970;2024-03-22T11:56:29;38.70;;;20.50;;
3571;SDS011;7958;53.024;12.970;2024-03-22T11:58:57;31.70;;;20.70;;
3571;SDS011;7958;53.024;12.970;2024-03-22T12:01:25;35.43;;;22.07;;
3571;SDS011;7958;53.024;12.970;2024-03-22T12:03:54;31.07;;;19.60;;
3571;SDS011;7958;53.024;12.970;2024-03-22T12:06:21;39.30;;;21.50;;
3571;SDS011;7958;53.024;12.970;2024-03-22T12:08:47;35.13;;;20.90;;
3571;SDS011;7958;53.024;12.970;2024-03-22T12:11:13;31.40;;;19.83;;
3571;SDS011;7958;53.024;12.970;2024-03-22T12:13:39;36.50;;;23.93;;
3571;SDS011;7958;53.024;12.970;2024-03-22T12:16:06;37.73;;;21.10;;
3571;SDS011;7958;53.024;12.970;2024-03-22T12:18:32;32.93;;;19.57;;
3571;SDS011;7958;53.024;12.970;2024-03-22T12:21:00;35.30;;;20.03;;
3571;SDS011;7958;53.024;12.970;2024-03-22T12:23:25;35.83;;;19.90;;
3571;SDS011;7958;53.024;12.970;2024-03-22T12:25:52;34.40;;;19.87;;
3571;SDS011;7958;53.024;12.970;2024-03-22T12:28:17;31.13;;;19.13;;
3571;SDS011;7958;53.024;12.970;2024-03-22T12:30:43;33.70;;;19.70;;
3571;SDS011;7958;53.024;12.970;2024-03-22T12:33:09;32.60;;;19.10;;
3571;SDS011;7958;53.024;12.970;2024-03-22T12:35:36;33.30;;;19.30;;
3571;SDS011;7958;53.024;12.970;2024-03-22T12:38:03;35.43;;;20.67;;
3571;SDS011;7958;53.024;12.970;2024-03-22T12:40:30;32.80;;;18.60;;
3571;SDS011;7958;53.024;12.970;2024-03-22T12:42:57;33.50;;;18.30;;
3571;SDS011;7958;53.024;12.970;2024-03-22T12:45:26;32.93;;;18.50;;
3571;SDS011;7958;53.024;12.970;2024-03-22T12:47:51;27.60;;;17.87;;
3571;SDS011;7958;53.024;12.970;2024-03-22T12:50:18;30.40;;;18.00;;
3571;SDS011;7958;53.024;12.970;2024-03-22T12:52:43;27.27;;;19.20;;
3571;SDS011;7958;53.024;12.970;2024-03-22T12:55:11;30.33;;;16.97;;
3571;SDS011;7958;53.024;12.970;2024-03-22T12:57:36;29.47;;;18.10;;
3571;SDS011;7958;53.024;12.970;2024-03-22T13:00:03;32.43;;;18.57;;
3571;SDS011;7958;53.024;12.970;2024-03-22T13:02:33;32.70;;;17.87;;
3571;SDS011;7958;53.024;12.970;2024-03-22T13:05:00;30.03;;;17.30;;
3571;SDS011;7958;53.024;12.970;2024-03-22T13:07:26;28.43;;;17.37;;
3571;SDS011;7958;53.024;12.970;2024-03-22T13:09:53;25.70;;;16.57;;
3571;SDS011;7958;53.024;12.970;2024-03-22T13:12:21;29.33;;;18.90;;
3571;SDS011;7958;53.024;12.970;2024-03-22T13:14:47;26.33;;;17.37;;
3571;SDS011;7958;53.024;12.970;2024-03-22T13:17:13;30.13;;;16.20;;
3571;SDS011;7958;53.024;12.970;2024-03-22T13:19:40;31.03;;;19.10;;
3571;SDS011;7958;53.024;12.970;2024-03-22T13:22:06;30.20;;;17.70;;
3571;SDS011;7958;53.024;12.970;2024-03-22T13:24:32;27.03;;;17.10;;
3571;SDS011;7958;53.024;12.970;2024-03-22T13:26:58;24.13;;;15.37;;
3571;SDS011;7958;53.024;12.970;2024-03-22T13:29:27;29.27;;;17.40;;
3571;SDS011;7958;53.024;12.970;2024-03-22T13:31:53;29.23;;;17.23;;
3571;SDS011;7958;53.024;12.970;2024-03-22T13:34:19;26.13;;;16.50;;
3571;SDS011;7958;53.024;12.970;2024-03-22T13:36:45;26.50;;;16.07;;
3571;SDS011;7958;53.024;12.970;2024-03-22T13:39:11;25.50;;;16.43;;
3571;SDS011;7958;53.024;12.970;2024-03-22T13:41:40;27.87;;;16.50;;
3571;SDS011;7958;53.024;12.970;2024-03-22T13:44:07;24.90;;;14.73;;
3571;SDS011;7958;53.024;12.970;2024-03-22T13:46:34;23.67;;;16.10;;
3571;SDS011;7958;53.024;12.970;2024-03-22T13:49:01;25.90;;;16.70;;
3571;SDS011;7958;53.024;12.970;2024-03-22T13:51:26;24.37;;;14.87;;
3571;SDS011;7958;53.024;12.970;2024-03-22T13:53:54;30.83;;;16.27;;
3571;SDS011;7958;53.024;12.970;2024-03-22T13:56:20;25.27;;;15.13;;
3571;SDS011;7958;53.024;12.970;2024-03-22T13:58:46;25.47;;;14.70;;
3571;SDS011;7958;53.024;12.970;2024-03-22T14:01:14;23.87;;;14.73;;
3571;SDS011;7958;53.024;12.970;2024-03-22T14:03:44;25.20;;;16.20;;
3571;SDS011;7958;53.024;12.970;2024-03-22T14:06:09;26.23;;;15.87;;
3571;SDS011;7958;53.024;12.970;2024-03-22T14:08:35;23.90;;;15.77;;
3571;SDS011;7958;53.024;12.970;2024-03-22T14:11:01;25.87;;;14.57;;
3571;SDS011;7958;53.024;12.970;2024-03-22T14:13:28;27.00;;;14.23;;
3571;SDS011;7958;53.024;12.970;2024-03-22T14:15:53;22.60;;;14.50;;
3571;SDS011;7958;53.024;12.970;2024-03-22T14:18:19;27.13;;;16.27;;
3571;SDS011;7958;53.024;12.970;2024-03-22T14:20:46;22.10;;;13.77;;
3571;SDS011;7958;53.024;12.970;2024-03-22T14:23:12;25.63;;;15.77;;
3571;SDS011;7958;53.024;12.970;2024-03-22T14:25:37;21.60;;;14.70;;
3571;SDS011;7958;53.024;12.970;2024-03-22T14:28:04;26.37;;;16.33;;
3571;SDS011;7958;53.024;12.970;2024-03-22T14:30:30;21.73;;;14.53;;